createdAt,value
2019-02-02T00:01:01.461Z,17.07
2019-02-02T00:04:08.635Z,16.93
2019-02-02T00:07:14.597Z,15.87
2019-02-02T00:10:20.549Z,16.83
2019-02-02T00:13:26.388Z,16.97
2019-02-02T00:16:32.286Z,16.30
2019-02-02T00:19:39.128Z,15.67
2019-02-02T00:22:45.196Z,16.50
2019-02-02T00:25:51.038Z,13.47
2019-02-02T00:28:57.002Z,14.13
2019-02-02T00:32:02.981Z,12.80
2019-02-02T00:35:09.027Z,14.17
2019-02-02T00:38:15.114Z,13.73
2019-02-02T00:41:21.062Z,21.00
2019-02-02T00:44:27.094Z,18.77
2019-02-02T00:47:32.929Z,16.80
2019-02-02T00:50:38.865Z,17.50
2019-02-02T00:53:44.842Z,17.97
2019-02-02T00:56:50.722Z,18.30
2019-02-02T00:59:56.707Z,20.30
2019-02-02T01:03:02.797Z,20.47
2019-02-02T01:06:08.874Z,20.93
2019-02-02T01:09:26.059Z,19.33
2019-02-02T01:12:31.917Z,18.20
2019-02-02T01:15:37.898Z,17.17
2019-02-02T01:18:43.812Z,15.90
2019-02-02T01:21:49.801Z,16.00
2019-02-02T01:24:55.827Z,17.33
2019-02-02T01:28:05.281Z,12.80
2019-02-02T01:31:09.396Z,11.87
2019-02-02T01:34:15.367Z,13.20
2019-02-02T01:37:21.264Z,12.90
2019-02-02T01:40:27.280Z,12.87
2019-02-02T01:43:33.313Z,14.90
2019-02-02T01:46:39.318Z,13.33
2019-02-02T01:49:45.201Z,14.53
2019-02-02T01:52:51.129Z,13.17
2019-02-02T01:55:57.021Z,13.47
2019-02-02T01:59:04.120Z,12.90
2019-02-02T02:02:10.074Z,13.57
2019-02-02T02:05:16.242Z,13.53
2019-02-02T02:08:22.160Z,15.23
2019-02-02T02:11:28.057Z,15.90
2019-02-02T02:14:33.917Z,14.40
2019-02-02T02:17:40.660Z,13.83
2019-02-02T02:20:46.580Z,14.37
2019-02-02T02:23:52.551Z,13.50
2019-02-02T02:26:58.439Z,13.50
2019-02-02T02:30:04.922Z,14.07
2019-02-02T02:33:11.426Z,15.43
2019-02-02T02:36:17.329Z,14.23
2019-02-02T02:39:23.251Z,15.47
2019-02-02T02:42:29.334Z,14.00
2019-02-02T02:45:35.116Z,13.60
2019-02-02T02:48:41.011Z,14.33
2019-02-02T02:51:46.880Z,15.17
2019-02-02T02:54:52.739Z,17.43
2019-02-02T02:57:58.593Z,22.07
2019-02-02T03:01:04.813Z,21.17
2019-02-02T03:04:10.733Z,22.90
2019-02-02T03:07:19.406Z,26.63
2019-02-02T03:10:25.176Z,28.37
2019-02-02T03:13:31.043Z,30.87
2019-02-02T03:16:36.964Z,32.93
2019-02-02T03:19:42.876Z,33.00
2019-02-02T03:22:48.906Z,32.60
2019-02-02T03:25:55.063Z,30.97
2019-02-02T03:29:00.996Z,31.27
2019-02-02T03:32:07.131Z,32.63
2019-02-02T03:35:14.289Z,32.60
2019-02-02T03:38:20.138Z,31.97
2019-02-02T03:41:26.065Z,30.73
2019-02-02T03:44:31.972Z,31.63
2019-02-02T03:47:37.784Z,30.37
2019-02-02T03:50:43.751Z,29.30
2019-02-02T03:53:49.574Z,28.10
2019-02-02T03:56:55.413Z,28.07
2019-02-02T04:00:01.401Z,27.10
2019-02-02T04:03:07.764Z,28.47
2019-02-02T04:06:13.695Z,25.63
2019-02-02T04:09:19.602Z,23.50
2019-02-02T04:12:25.517Z,23.87
2019-02-02T04:15:31.455Z,25.27
2019-02-02T04:18:37.339Z,29.23
2019-02-02T04:21:43.285Z,28.53
2019-02-02T04:24:50.338Z,27.97
2019-02-02T04:27:56.362Z,29.37
2019-02-02T04:31:02.205Z,33.87
2019-02-02T04:34:08.165Z,34.90
2019-02-02T04:37:14.047Z,34.53
2019-02-02T04:40:20.591Z,31.37
2019-02-02T04:43:26.666Z,31.33
2019-02-02T04:46:32.526Z,29.17
2019-02-02T04:49:38.382Z,36.47
2019-02-02T04:52:44.333Z,29.70
2019-02-02T04:55:50.316Z,30.97
2019-02-02T04:58:56.265Z,29.37
2019-02-02T05:02:02.130Z,29.73
2019-02-02T05:05:09.522Z,32.10
2019-02-02T05:08:15.477Z,30.57
2019-02-02T05:11:21.376Z,31.50
2019-02-02T05:14:27.255Z,32.77
2019-02-02T05:17:33.222Z,32.33
2019-02-02T05:20:39.075Z,41.80
2019-02-02T05:23:44.925Z,42.70
2019-02-02T05:26:50.925Z,35.70
2019-02-02T05:29:56.882Z,34.87
2019-02-02T05:33:02.931Z,34.57
2019-02-02T05:36:08.877Z,32.53
2019-02-02T05:39:15.052Z,32.67
2019-02-02T05:42:21.014Z,32.77
2019-02-02T05:45:26.926Z,29.90
2019-02-02T05:48:32.878Z,28.03
2019-02-02T05:51:38.833Z,28.10
2019-02-02T05:54:44.656Z,27.70
2019-02-02T05:57:50.589Z,26.30
2019-02-02T06:00:57.588Z,28.10
2019-02-02T06:04:03.481Z,27.20
2019-02-02T06:07:09.425Z,24.17
2019-02-02T06:10:16.462Z,22.90
2019-02-02T06:13:22.309Z,20.73
2019-02-02T06:16:28.262Z,23.53
2019-02-02T06:19:34.115Z,25.77
2019-02-02T06:22:39.969Z,36.70
2019-02-02T06:25:45.821Z,41.47
2019-02-02T06:28:51.715Z,31.47
2019-02-02T06:31:57.557Z,31.40
2019-02-02T06:35:03.518Z,34.37
2019-02-02T06:38:09.564Z,32.83
2019-02-02T06:41:15.400Z,27.60
2019-02-02T06:44:21.360Z,21.83
2019-02-02T06:47:27.220Z,20.20
2019-02-02T06:50:33.175Z,18.20
2019-02-02T06:53:39.157Z,15.33
2019-02-02T06:56:45.039Z,16.70
2019-02-02T06:59:51.004Z,17.53
2019-02-02T07:02:57.236Z,16.83
2019-02-02T07:06:03.121Z,18.10
2019-02-02T07:09:10.356Z,17.77
2019-02-02T07:12:16.331Z,18.43
2019-02-02T07:15:24.602Z,22.47
2019-02-02T07:18:30.550Z,21.03
2019-02-02T07:21:36.469Z,23.33
2019-02-02T07:24:42.420Z,22.50
2019-02-02T07:27:48.247Z,22.90
2019-02-02T07:30:54.233Z,24.80
2019-02-02T07:34:00.256Z,27.17
2019-02-02T07:37:06.269Z,26.33
2019-02-02T07:40:13.466Z,25.30
2019-02-02T07:43:19.313Z,26.23
2019-02-02T07:46:25.289Z,24.43
2019-02-02T07:49:31.228Z,25.60
2019-02-02T07:52:37.201Z,26.67
2019-02-02T07:55:43.051Z,37.77
2019-02-02T07:58:49.011Z,71.00
2019-02-02T08:01:54.892Z,27.17
2019-02-02T08:05:00.841Z,29.97
2019-02-02T08:08:07.269Z,26.97
2019-02-02T08:11:13.271Z,30.63
2019-02-02T08:14:20.167Z,36.00
2019-02-02T08:17:26.119Z,39.47
2019-02-02T08:20:32.077Z,39.00
2019-02-02T08:23:37.945Z,35.97
2019-02-02T08:26:43.902Z,37.53
2019-02-02T08:29:49.749Z,34.27
2019-02-02T08:32:55.700Z,33.83
2019-02-02T08:36:04.076Z,31.97
2019-02-02T08:39:10.875Z,29.07
2019-02-02T08:42:16.771Z,28.27
2019-02-02T08:45:22.971Z,30.93
2019-02-02T08:48:29.944Z,26.63
2019-02-02T08:51:35.879Z,29.10
2019-02-02T08:54:41.738Z,24.10
2019-02-02T08:57:47.726Z,24.53
2019-02-02T09:01:03.754Z,24.43
2019-02-02T09:04:01.378Z,22.70
2019-02-02T09:07:07.409Z,22.27
2019-02-02T09:10:16.597Z,19.77
2019-02-02T09:13:22.560Z,22.20
2019-02-02T09:16:28.551Z,22.33
2019-02-02T09:19:34.451Z,20.97
2019-02-02T09:22:40.520Z,19.67
2019-02-02T09:25:46.541Z,20.50
2019-02-02T09:28:52.391Z,22.20
2019-02-02T09:31:58.424Z,21.33
2019-02-02T09:35:06.838Z,21.10
2019-02-02T09:38:12.830Z,23.73
2019-02-02T09:41:18.735Z,25.30
2019-02-02T09:44:24.581Z,24.00
2019-02-02T09:47:30.988Z,22.77
2019-02-02T09:50:37.065Z,24.57
2019-02-02T09:53:42.962Z,23.90
2019-02-02T09:56:48.834Z,29.67
2019-02-02T09:59:54.678Z,28.67
2019-02-02T10:03:00.871Z,32.30
2019-02-02T10:06:06.988Z,30.27
2019-02-02T10:09:12.939Z,25.73
2019-02-02T10:12:21.004Z,27.03
2019-02-02T10:15:26.630Z,30.03
2019-02-02T10:21:57.221Z,27.20
2019-02-02T10:25:03.148Z,26.37
2019-02-02T10:28:09.161Z,21.57
2019-02-02T10:31:15.139Z,32.00
2019-02-02T10:34:21.031Z,20.83
2019-02-02T10:37:26.913Z,23.00
2019-02-02T10:40:32.801Z,52.10
2019-02-02T10:43:38.588Z,18.40
2019-02-02T10:46:44.594Z,17.77
2019-02-02T10:49:50.483Z,19.60
2019-02-02T10:52:56.439Z,28.10
2019-02-02T10:56:02.359Z,25.57
2019-02-02T10:59:09.105Z,29.00
2019-02-02T11:02:17.744Z,23.17
2019-02-02T11:05:22.606Z,30.00
2019-02-02T11:08:28.495Z,44.27
2019-02-02T11:11:34.298Z,29.97
2019-02-02T11:14:40.082Z,26.27
2019-02-02T11:17:46.091Z,25.73
2019-02-02T11:20:51.934Z,27.80
2019-02-02T11:23:57.972Z,39.00
2019-02-02T11:27:04.243Z,86.77
2019-02-02T11:30:11.856Z,25.30
2019-02-02T11:33:17.644Z,31.13
2019-02-02T11:36:23.527Z,25.40
2019-02-02T11:39:29.326Z,34.23
2019-02-02T11:42:35.347Z,29.23
2019-02-02T11:45:41.344Z,35.00
2019-02-02T11:48:47.165Z,28.23
2019-02-02T11:51:53.117Z,22.53
2019-02-02T11:54:58.928Z,37.10
2019-02-02T11:58:04.842Z,42.43
2019-02-02T12:01:10.705Z,22.90
2019-02-02T12:04:16.500Z,33.07
2019-02-02T12:07:22.272Z,34.13
2019-02-02T12:10:28.759Z,29.43
2019-02-02T12:13:34.570Z,20.77
2019-02-02T12:16:40.433Z,34.53
2019-02-02T12:19:46.204Z,35.00
2019-02-02T12:22:52.189Z,32.47
2019-02-02T12:25:58.260Z,23.23
2019-02-02T12:29:04.349Z,23.07
2019-02-02T12:32:10.318Z,19.30
2019-02-02T12:35:18.714Z,26.73
2019-02-02T12:38:24.629Z,31.47
2019-02-02T12:41:30.569Z,23.97
2019-02-02T12:44:36.476Z,21.93
2019-02-02T12:47:43.397Z,18.97
2019-02-02T12:50:49.371Z,27.23
2019-02-02T12:53:55.841Z,26.03
2019-02-02T12:57:01.899Z,27.73
2019-02-02T13:00:11.616Z,21.37
2019-02-02T13:03:17.659Z,42.20
2019-02-02T13:06:23.502Z,56.73
2019-02-02T13:09:29.265Z,42.23
2019-02-02T13:12:36.830Z,49.50
2019-02-02T13:15:42.634Z,59.27
2019-02-02T13:18:48.468Z,52.70
2019-02-02T13:21:54.403Z,37.83
2019-02-02T13:25:00.358Z,46.77
2019-02-02T13:28:06.436Z,52.63
2019-02-02T13:31:12.216Z,55.70
2019-02-02T13:34:17.985Z,57.40
2019-02-02T13:37:24.187Z,32.03
2019-02-02T13:40:30.103Z,23.73
2019-02-02T13:43:35.918Z,51.93
2019-02-02T13:46:41.720Z,41.47
2019-02-02T13:49:47.509Z,40.53
2019-02-02T13:52:53.724Z,32.73
2019-02-02T13:55:59.611Z,32.93
2019-02-02T13:59:05.615Z,62.30
2019-02-02T14:02:12.506Z,147.63
2019-02-02T14:05:18.948Z,54.50
2019-02-02T14:08:24.720Z,21.73
2019-02-02T14:11:30.500Z,22.67
2019-02-02T14:14:36.394Z,35.53
2019-02-02T14:17:42.244Z,26.13
2019-02-02T14:20:49.507Z,28.90
2019-02-02T14:23:55.273Z,62.07
2019-02-02T14:27:01.087Z,56.83
2019-02-02T14:30:13.007Z,63.60
2019-02-02T14:33:19.250Z,48.87
2019-02-02T14:36:25.011Z,27.00
2019-02-02T14:39:30.761Z,28.23
2019-02-02T14:42:36.532Z,27.00
2019-02-02T14:45:42.285Z,23.90
2019-02-02T14:48:48.070Z,24.47
2019-02-02T14:51:53.994Z,23.70
2019-02-02T14:54:59.828Z,22.53
2019-02-02T14:58:06.259Z,25.37
2019-02-02T15:01:12.022Z,28.63
2019-02-02T15:04:17.934Z,25.03
2019-02-02T15:07:23.685Z,25.33
2019-02-02T15:10:29.506Z,24.37
2019-02-02T15:13:35.248Z,23.57
2019-02-02T15:16:41.058Z,27.23
2019-02-02T15:19:46.819Z,27.00
2019-02-02T15:22:52.879Z,34.00
2019-02-02T15:25:58.616Z,32.93
2019-02-02T15:29:04.502Z,29.57
2019-02-02T15:32:10.986Z,25.43
2019-02-02T15:35:17.146Z,28.43
2019-02-02T15:38:23.048Z,63.30
2019-02-02T15:41:29.059Z,35.97
2019-02-02T15:44:34.951Z,33.87
2019-02-02T15:47:40.724Z,38.27
2019-02-02T15:50:46.775Z,41.67
2019-02-02T15:53:52.780Z,50.73
2019-02-02T15:56:58.593Z,39.97
2019-02-02T16:00:05.061Z,41.03
2019-02-02T16:03:12.375Z,47.97
2019-02-02T16:06:18.251Z,42.80
2019-02-02T16:09:24.143Z,38.40
2019-02-02T16:12:30.337Z,79.43
2019-02-02T16:15:36.143Z,65.57
2019-02-02T16:18:41.888Z,54.27
2019-02-02T16:21:47.676Z,45.43
2019-02-02T16:24:53.503Z,64.63
2019-02-02T16:27:59.415Z,51.93
2019-02-02T16:31:05.322Z,38.17
2019-02-02T16:34:11.284Z,39.87
2019-02-02T16:37:17.128Z,37.30
2019-02-02T16:40:24.695Z,54.67
2019-02-02T16:43:30.487Z,40.37
2019-02-02T16:46:36.518Z,45.60
2019-02-02T16:49:42.332Z,44.07
2019-02-02T16:52:48.558Z,40.33
2019-02-02T16:55:54.356Z,42.33
2019-02-02T16:59:00.141Z,41.70
2019-02-02T17:02:06.104Z,42.67
2019-02-02T17:05:12.238Z,46.27
2019-02-02T17:08:18.027Z,46.10
2019-02-02T17:11:23.801Z,50.33
2019-02-02T17:14:29.600Z,53.37
2019-02-02T17:17:35.421Z,52.90
2019-02-02T17:20:43.524Z,53.50
2019-02-02T17:23:49.297Z,59.07
2019-02-02T17:26:55.165Z,63.70
2019-02-02T17:30:01.003Z,67.13
2019-02-02T17:33:11.061Z,68.50
2019-02-02T17:36:16.816Z,59.80
2019-02-02T17:39:22.599Z,58.10
2019-02-02T17:42:28.352Z,55.80
2019-02-02T17:45:34.247Z,62.27
2019-02-02T17:48:40.012Z,58.37
2019-02-02T17:51:45.995Z,57.30
2019-02-02T17:54:51.777Z,54.83
2019-02-02T17:57:57.695Z,50.73
2019-02-02T18:01:03.751Z,53.33
2019-02-02T18:04:09.612Z,54.33
2019-02-02T18:07:15.568Z,64.93
2019-02-02T18:10:21.553Z,51.47
2019-02-02T18:13:27.367Z,52.33
2019-02-02T18:16:33.299Z,54.30
2019-02-02T18:19:39.124Z,56.07
2019-02-02T18:22:45.098Z,57.20
2019-02-02T18:25:50.904Z,66.20
2019-02-02T18:28:57.743Z,82.77
2019-02-02T18:32:12.781Z,81.43
2019-02-02T18:35:11.935Z,74.13
2019-02-02T18:38:17.738Z,67.90
2019-02-02T18:41:23.605Z,64.80
2019-02-02T18:44:29.397Z,65.33
2019-02-02T18:47:35.162Z,62.67
2019-02-02T18:50:40.936Z,62.07
2019-02-02T18:53:46.808Z,66.53
2019-02-02T18:56:53.075Z,66.20
2019-02-02T18:59:59.553Z,65.53
2019-02-02T19:03:11.329Z,63.40
2019-02-02T19:06:18.359Z,67.00
2019-02-02T19:09:25.704Z,71.50
2019-02-02T19:12:31.996Z,70.23
2019-02-02T19:15:37.881Z,63.00
2019-02-02T19:18:43.688Z,71.17
2019-02-02T19:21:49.457Z,72.83
2019-02-02T19:24:55.212Z,70.83
2019-02-02T19:28:01.029Z,84.10
2019-02-02T19:31:07.252Z,65.70
2019-02-02T19:34:13.024Z,60.03
2019-02-02T19:37:21.061Z,100.90
2019-02-02T19:40:26.466Z,83.50
2019-02-02T19:43:32.396Z,104.37
2019-02-02T19:46:38.231Z,180.73
2019-02-02T19:49:43.999Z,112.37
2019-02-02T19:52:50.129Z,84.63
2019-02-02T19:55:56.065Z,100.47
2019-02-02T19:59:01.923Z,78.07
2019-02-02T20:02:07.781Z,72.93
2019-02-02T20:05:14.283Z,73.13
2019-02-02T20:08:20.040Z,73.80
2019-02-02T20:11:25.857Z,70.60
2019-02-02T20:14:31.662Z,65.87
2019-02-02T20:17:37.532Z,67.20
2019-02-02T20:20:43.487Z,77.33
2019-02-02T20:23:49.272Z,81.40
2019-02-02T20:26:55.066Z,77.40
2019-02-02T20:30:00.863Z,82.70
2019-02-02T20:33:07.026Z,70.17
2019-02-02T20:36:13.928Z,72.37
2019-02-02T20:39:19.705Z,73.17
2019-02-02T20:42:25.475Z,74.87
2019-02-02T20:45:33.444Z,75.90
2019-02-02T20:48:39.253Z,76.60
2019-02-02T20:51:45.036Z,79.70
2019-02-02T20:54:50.862Z,83.50
2019-02-02T20:57:56.739Z,81.37
2019-02-02T21:01:02.523Z,81.57
2019-02-02T21:04:08.765Z,83.23
2019-02-02T21:07:14.618Z,77.40
2019-02-02T21:10:21.804Z,74.97
2019-02-02T21:13:27.571Z,93.60
2019-02-02T21:16:33.347Z,71.57
2019-02-02T21:19:39.166Z,73.17
2019-02-02T21:22:45.027Z,81.87
2019-02-02T21:25:50.821Z,79.17
2019-02-02T21:28:56.713Z,82.23
2019-02-02T21:32:02.509Z,81.30
2019-02-02T21:35:08.465Z,84.20
2019-02-02T21:38:14.570Z,89.90
2019-02-02T21:41:20.385Z,83.17
2019-02-02T21:44:26.158Z,87.30
2019-02-02T21:47:33.147Z,85.70
2019-02-02T21:50:38.908Z,99.73
2019-02-02T21:53:44.709Z,86.10
2019-02-02T21:56:50.602Z,107.67
2019-02-02T21:59:56.765Z,81.67
2019-02-02T22:03:02.625Z,84.50
2019-02-02T22:06:15.655Z,90.37
2019-02-02T22:09:16.785Z,71.50
2019-02-02T22:12:23.027Z,70.23
2019-02-02T22:15:29.521Z,71.30
2019-02-02T22:18:35.378Z,70.03
2019-02-02T22:21:41.492Z,69.30
2019-02-02T22:24:47.259Z,75.90
2019-02-02T22:27:53.470Z,71.83
2019-02-02T22:31:00.368Z,73.53
2019-02-02T22:34:06.215Z,71.30
2019-02-02T22:37:12.150Z,75.57
2019-02-02T22:40:20.356Z,72.50
2019-02-02T22:43:26.175Z,75.63
2019-02-02T22:46:32.252Z,76.10
2019-02-02T22:49:38.111Z,74.00
2019-02-02T22:52:44.081Z,75.37
2019-02-02T22:55:49.848Z,72.20
2019-02-02T22:58:55.661Z,76.40
2019-02-02T23:02:07.856Z,78.00
2019-02-02T23:05:51.366Z,77.67
2019-02-02T23:09:34.002Z,75.70
2019-02-02T23:13:10.859Z,76.07
2019-02-02T23:16:30.173Z,72.70
2019-02-02T23:19:36.066Z,76.73
2019-02-02T23:22:41.938Z,77.60
2019-02-02T23:25:47.697Z,75.60
2019-02-02T23:28:53.577Z,73.80
2019-02-02T23:31:59.975Z,69.03
2019-02-02T23:35:06.244Z,70.27
2019-02-02T23:38:12.005Z,66.40
2019-02-02T23:41:17.913Z,62.13
2019-02-02T23:44:23.855Z,60.37
2019-02-02T23:47:29.708Z,54.33
2019-02-02T23:50:35.508Z,54.70
2019-02-02T23:53:41.567Z,50.43
2019-02-02T23:56:47.550Z,45.80
2019-02-02T23:59:53.319Z,46.83
